createdAt,value
2023-05-05T00:01:43.442Z,14.67
2023-05-05T00:04:11.198Z,14.54
2023-05-05T00:06:38.682Z,14.21
2023-05-05T00:09:06.829Z,14.12
2023-05-05T00:11:34.525Z,14.33
2023-05-05T00:14:01.933Z,14.42
2023-05-05T00:16:29.474Z,14.12
2023-05-05T00:18:57.830Z,13.85
2023-05-05T00:21:25.334Z,13.52
2023-05-05T00:23:52.724Z,13.73
2023-05-05T00:26:21.242Z,13.70
2023-05-05T00:28:49.340Z,13.86
2023-05-05T00:31:16.923Z,13.89
2023-05-05T00:33:44.680Z,13.87
2023-05-05T00:36:12.306Z,13.98
2023-05-05T00:38:39.709Z,13.80
2023-05-05T00:41:07.621Z,13.86
2023-05-05T00:43:35.085Z,13.96
2023-05-05T00:46:06.560Z,13.78
2023-05-05T00:48:34.649Z,13.92
2023-05-05T00:51:02.334Z,13.44
2023-05-05T00:53:29.976Z,13.50
2023-05-05T00:55:58.051Z,13.08
2023-05-05T00:58:25.474Z,13.23
2023-05-05T01:00:53.177Z,13.37
2023-05-05T01:03:21.056Z,12.92
2023-05-05T01:06:15.618Z,12.52
2023-05-05T01:09:09.423Z,12.30
2023-05-05T01:12:02.369Z,12.48
2023-05-05T01:14:42.116Z,12.77
2023-05-05T01:17:17.353Z,12.96
2023-05-05T01:20:26.570Z,13.33
2023-05-05T01:23:00.558Z,13.27
2023-05-05T01:25:43.320Z,13.22
2023-05-05T01:28:24.430Z,13.07
2023-05-05T01:31:13.790Z,13.41
2023-05-05T01:33:46.416Z,13.03
2023-05-05T01:36:22.931Z,12.88
2023-05-05T01:38:57.223Z,12.44
2023-05-05T01:41:28.702Z,12.44
2023-05-05T01:43:57.349Z,12.87
2023-05-05T01:46:25.653Z,12.35
2023-05-05T01:48:54.036Z,12.33
2023-05-05T01:51:23.569Z,12.29
2023-05-05T01:53:57.579Z,12.32
2023-05-05T01:56:25.381Z,13.00
2023-05-05T01:58:54.125Z,12.64
2023-05-05T02:01:27.020Z,12.66
2023-05-05T02:03:59.087Z,12.68
2023-05-05T02:06:28.302Z,12.81
2023-05-05T02:08:58.400Z,12.81
2023-05-05T02:11:26.981Z,12.85
2023-05-05T02:13:54.717Z,12.77
2023-05-05T02:16:22.911Z,12.55
2023-05-05T02:18:50.744Z,12.27
2023-05-05T02:21:18.377Z,12.21
2023-05-05T02:23:51.550Z,12.00
2023-05-05T02:26:21.674Z,11.69
2023-05-05T02:29:07.574Z,12.07
2023-05-05T02:31:39.819Z,11.91
2023-05-05T02:34:08.218Z,12.02
2023-05-05T02:36:38.361Z,12.18
2023-05-05T02:39:18.159Z,12.28
2023-05-05T02:41:47.482Z,12.44
2023-05-05T02:44:17.137Z,12.26
2023-05-05T02:46:45.255Z,11.90
2023-05-05T02:49:12.915Z,12.09
2023-05-05T02:51:40.541Z,11.86
2023-05-05T02:54:09.014Z,11.81
2023-05-05T02:56:40.963Z,11.83
2023-05-05T02:59:31.932Z,11.50
2023-05-05T03:02:16.475Z,12.03
2023-05-05T03:05:06.620Z,11.62
2023-05-05T03:07:41.081Z,11.28
2023-05-05T03:10:10.940Z,11.24
2023-05-05T03:12:51.675Z,11.42
2023-05-05T03:15:23.063Z,11.31
2023-05-05T03:17:53.533Z,11.03
2023-05-05T03:20:22.665Z,11.26
2023-05-05T03:22:50.883Z,11.52
2023-05-05T03:25:18.659Z,11.71
2023-05-05T03:27:46.276Z,11.72
2023-05-05T03:30:15.258Z,11.51
2023-05-05T03:32:44.470Z,11.42
2023-05-05T03:35:12.100Z,11.19
2023-05-05T03:37:39.740Z,10.84
2023-05-05T03:40:08.208Z,10.74
2023-05-05T03:42:35.876Z,10.61
2023-05-05T03:45:03.488Z,10.58
2023-05-05T03:47:31.363Z,10.94
2023-05-05T03:50:00.704Z,11.41
2023-05-05T03:52:28.540Z,11.58
2023-05-05T03:54:56.336Z,11.73
2023-05-05T03:57:23.825Z,11.60
2023-05-05T03:59:51.309Z,11.37
2023-05-05T04:02:19.269Z,11.36
2023-05-05T04:04:47.123Z,11.02
2023-05-05T04:07:15.078Z,10.69
2023-05-05T04:09:44.713Z,10.66
2023-05-05T04:12:12.569Z,10.97
2023-05-05T04:14:40.455Z,11.01
2023-05-05T04:17:08.637Z,11.54
2023-05-05T04:19:36.604Z,11.87
2023-05-05T04:22:04.260Z,11.12
2023-05-05T04:24:31.793Z,10.94
2023-05-05T04:27:00.372Z,11.01
2023-05-05T04:29:28.898Z,12.02
2023-05-05T04:31:56.875Z,12.90
2023-05-05T04:34:24.808Z,13.10
2023-05-05T04:36:52.567Z,12.73
2023-05-05T04:39:20.378Z,12.23
2023-05-05T04:41:48.263Z,13.15
2023-05-05T04:44:15.907Z,12.23
2023-05-05T04:46:43.579Z,11.67
2023-05-05T04:49:11.357Z,11.72
2023-05-05T04:51:42.191Z,11.59
2023-05-05T04:54:09.650Z,11.62
2023-05-05T04:56:37.686Z,12.85
2023-05-05T04:59:05.195Z,13.52
2023-05-05T05:01:32.625Z,13.71
2023-05-05T05:04:00.537Z,13.90
2023-05-05T05:06:29.337Z,13.71
2023-05-05T05:08:57.131Z,13.32
2023-05-05T05:11:24.917Z,13.53
2023-05-05T05:13:53.106Z,12.73
2023-05-05T05:16:21.646Z,13.47
2023-05-05T05:18:49.432Z,12.96
2023-05-05T05:21:17.529Z,13.47
2023-05-05T05:23:45.023Z,13.84
2023-05-05T05:26:12.991Z,14.36
2023-05-05T05:28:41.676Z,13.68
2023-05-05T05:31:09.451Z,13.23
2023-05-05T05:33:37.275Z,14.14
2023-05-05T05:36:05.206Z,14.78
2023-05-05T05:38:32.672Z,14.65
2023-05-05T05:41:05.392Z,14.63
2023-05-05T05:43:33.786Z,14.89
2023-05-05T05:46:01.699Z,14.96
2023-05-05T05:48:29.673Z,15.40
2023-05-05T05:50:57.312Z,15.69
2023-05-05T05:53:25.333Z,15.49
2023-05-05T05:55:53.319Z,15.61
2023-05-05T05:58:20.889Z,15.78
2023-05-05T06:00:49.201Z,16.29
2023-05-05T06:03:17.332Z,16.23
2023-05-05T06:05:46.299Z,15.73
2023-05-05T06:08:14.289Z,16.23
2023-05-05T06:10:42.496Z,15.98
2023-05-05T06:13:10.649Z,16.35
2023-05-05T06:15:38.891Z,16.12
2023-05-05T06:18:06.908Z,16.43
2023-05-05T06:20:34.339Z,16.55
2023-05-05T06:23:01.819Z,16.71
2023-05-05T06:25:31.026Z,17.06
2023-05-05T06:27:58.696Z,17.15
2023-05-05T06:30:29.026Z,17.11
2023-05-05T06:32:57.005Z,16.65
2023-05-05T06:35:24.788Z,16.84
2023-05-05T06:37:52.163Z,17.14
2023-05-05T06:40:20.098Z,16.94
2023-05-05T06:42:47.673Z,16.83
2023-05-05T06:45:16.011Z,17.81
2023-05-05T06:47:44.819Z,17.75
2023-05-05T06:50:12.652Z,17.37
2023-05-05T06:52:40.032Z,17.85
2023-05-05T06:55:08.050Z,18.00
2023-05-05T06:57:35.815Z,18.02
2023-05-05T07:00:05.998Z,18.03
2023-05-05T07:02:34.020Z,18.25
2023-05-05T07:05:01.582Z,18.92
2023-05-05T07:07:31.757Z,20.13
2023-05-05T07:09:59.613Z,20.77
2023-05-05T07:12:29.449Z,21.45
2023-05-05T07:14:57.310Z,21.83
2023-05-05T07:17:25.542Z,21.63
2023-05-05T07:19:54.998Z,22.21
2023-05-05T07:22:22.630Z,22.41
2023-05-05T07:24:51.771Z,22.51
2023-05-05T07:27:20.473Z,22.40
2023-05-05T07:29:48.019Z,22.69
2023-05-05T07:32:15.727Z,23.80
2023-05-05T07:34:43.226Z,24.32
2023-05-05T07:37:10.931Z,25.38
2023-05-05T07:39:38.657Z,26.34
2023-05-05T07:42:07.407Z,27.72
2023-05-05T07:44:34.890Z,27.88
2023-05-05T07:47:02.606Z,26.67
2023-05-05T07:49:30.028Z,27.04
2023-05-05T07:51:57.456Z,28.63
2023-05-05T07:54:25.081Z,28.93
2023-05-05T07:56:52.671Z,27.97
2023-05-05T07:59:20.238Z,29.75
2023-05-05T08:01:47.913Z,29.31
2023-05-05T08:04:15.707Z,29.70
2023-05-05T08:06:43.222Z,30.50
2023-05-05T08:09:10.946Z,30.17
2023-05-05T08:11:39.280Z,30.68
2023-05-05T08:14:07.722Z,29.83
2023-05-05T08:16:35.394Z,31.72
2023-05-05T08:19:06.219Z,30.71
2023-05-05T08:21:37.338Z,30.08
2023-05-05T08:24:05.158Z,29.12
2023-05-05T08:26:32.557Z,28.92
2023-05-05T08:29:01.175Z,29.91
2023-05-05T08:31:33.177Z,29.59
2023-05-05T08:34:00.669Z,29.86
2023-05-05T08:36:29.036Z,27.15
2023-05-05T08:38:56.806Z,27.13
2023-05-05T08:41:24.097Z,26.62
2023-05-05T08:43:52.376Z,28.00
2023-05-05T08:46:20.117Z,27.74
2023-05-05T08:48:47.708Z,25.67
2023-05-05T08:51:21.519Z,26.26
2023-05-05T08:53:58.841Z,26.53
2023-05-05T08:56:27.437Z,25.02
2023-05-05T08:58:55.023Z,24.07
2023-05-05T09:01:22.804Z,22.43
2023-05-05T09:03:50.729Z,22.03
2023-05-05T09:06:20.519Z,21.83
2023-05-05T09:08:47.689Z,24.14
2023-05-05T09:11:14.857Z,23.82
2023-05-05T09:16:28.748Z,23.41
2023-05-05T09:19:03.445Z,23.75
2023-05-05T09:21:30.724Z,23.99
2023-05-05T09:24:11.026Z,24.08
2023-05-05T09:26:40.172Z,25.13
2023-05-05T09:29:07.727Z,25.58
2023-05-05T09:31:38.113Z,24.84
2023-05-05T09:34:15.630Z,24.82
2023-05-05T09:36:44.257Z,24.22
2023-05-05T09:39:11.636Z,25.16
2023-05-05T09:41:43.844Z,24.03
2023-05-05T09:44:12.664Z,25.24
2023-05-05T09:46:49.212Z,25.33
2023-05-05T09:49:20.636Z,25.37
2023-05-05T09:51:48.090Z,24.06
2023-05-05T09:54:24.867Z,25.11
2023-05-05T09:56:52.494Z,25.09
2023-05-05T09:59:19.785Z,25.36
2023-05-05T10:01:47.602Z,24.93
2023-05-05T10:04:25.072Z,25.34
2023-05-05T10:06:52.284Z,23.60
2023-05-05T10:09:19.767Z,24.73
2023-05-05T10:11:50.305Z,24.05
2023-05-05T10:14:18.173Z,25.07
2023-05-05T10:16:49.616Z,25.57
2023-05-05T10:19:17.653Z,24.53
2023-05-05T10:21:46.851Z,23.57
2023-05-05T10:24:16.667Z,23.41
2023-05-05T10:26:43.974Z,22.95
2023-05-05T10:29:13.834Z,22.42
2023-05-05T10:31:47.197Z,23.25
2023-05-05T10:34:27.297Z,23.43
2023-05-05T10:36:55.222Z,23.04
2023-05-05T10:39:22.489Z,23.67
2023-05-05T10:41:49.888Z,23.41
2023-05-05T10:44:17.593Z,23.35
2023-05-05T10:46:45.124Z,23.33
2023-05-05T10:49:26.865Z,23.33
2023-05-05T10:52:04.869Z,23.10
2023-05-05T10:54:32.685Z,24.56
2023-05-05T10:57:02.631Z,25.06
2023-05-05T10:59:35.693Z,25.07
2023-05-05T11:02:18.552Z,24.98
2023-05-05T11:05:03.131Z,25.52
2023-05-05T11:07:30.796Z,25.45
2023-05-05T11:09:58.860Z,25.19
2023-05-05T11:12:26.154Z,25.57
2023-05-05T11:15:12.398Z,26.51
2023-05-05T11:17:49.375Z,25.80
2023-05-05T11:20:16.978Z,25.53
2023-05-05T11:23:02.397Z,25.33
2023-05-05T11:25:33.039Z,26.27
2023-05-05T11:28:06.957Z,25.76
2023-05-05T11:30:35.113Z,24.80
2023-05-05T11:33:21.224Z,24.86
2023-05-05T11:35:58.743Z,24.33
2023-05-05T11:38:48.372Z,23.65
2023-05-05T11:41:28.303Z,22.70
2023-05-05T11:44:17.480Z,23.33
2023-05-05T11:49:55.674Z,23.41
2023-05-05T11:52:26.466Z,23.98
2023-05-05T11:54:53.808Z,24.93
2023-05-05T11:57:33.800Z,25.38
2023-05-05T12:00:01.408Z,24.45
2023-05-05T12:02:29.933Z,24.61
2023-05-05T12:04:58.210Z,24.96
2023-05-05T12:07:26.419Z,25.17
2023-05-05T12:09:53.741Z,26.17
2023-05-05T12:12:21.340Z,24.38
2023-05-05T12:14:52.653Z,24.50
2023-05-05T12:17:20.652Z,25.21
2023-05-05T12:19:51.942Z,26.41
2023-05-05T12:22:23.124Z,26.82
2023-05-05T12:24:55.078Z,25.90
2023-05-05T12:27:22.573Z,25.59
2023-05-05T12:29:50.147Z,26.53
2023-05-05T12:32:21.129Z,26.26
2023-05-05T12:34:48.811Z,25.03
2023-05-05T12:37:16.943Z,24.70
2023-05-05T12:39:44.665Z,25.25
2023-05-05T12:42:11.830Z,26.19
2023-05-05T12:44:39.294Z,26.47
2023-05-05T12:47:07.148Z,26.65
2023-05-05T12:49:52.853Z,26.92
2023-05-05T12:52:21.107Z,26.38
2023-05-05T12:55:06.629Z,27.00
2023-05-05T12:57:34.144Z,27.34
2023-05-05T13:00:01.599Z,27.26
2023-05-05T13:02:35.374Z,27.06
2023-05-05T13:05:03.033Z,26.94
2023-05-05T13:07:30.228Z,26.72
2023-05-05T13:10:07.367Z,26.68
2023-05-05T13:12:34.930Z,26.70
2023-05-05T13:15:02.131Z,26.88
2023-05-05T13:17:29.437Z,27.01
2023-05-05T13:19:57.174Z,26.65
2023-05-05T13:22:24.476Z,26.91
2023-05-05T13:25:07.262Z,26.93
2023-05-05T13:27:34.913Z,26.79
2023-05-05T13:30:02.134Z,26.59
2023-05-05T13:32:29.334Z,26.54
2023-05-05T13:34:57.911Z,27.13
2023-05-05T13:37:25.652Z,27.09
2023-05-05T13:39:53.035Z,27.11
2023-05-05T13:42:20.558Z,27.15
2023-05-05T13:44:47.834Z,26.98
2023-05-05T13:47:15.201Z,26.51
2023-05-05T13:49:42.895Z,25.51
2023-05-05T13:52:10.102Z,26.72
2023-05-05T13:54:37.639Z,25.73
2023-05-05T13:57:07.954Z,26.37
2023-05-05T13:59:35.284Z,26.17
2023-05-05T14:02:02.529Z,25.23
2023-05-05T14:04:30.176Z,25.21
2023-05-05T14:06:58.539Z,25.21
2023-05-05T14:09:25.798Z,24.87
2023-05-05T14:11:53.553Z,24.90
2023-05-05T14:14:20.787Z,24.59
2023-05-05T14:16:50.039Z,24.41
2023-05-05T14:19:17.888Z,26.08
2023-05-05T14:21:45.038Z,26.06
2023-05-05T14:24:12.325Z,26.36
2023-05-05T14:26:39.833Z,26.87
2023-05-05T14:29:08.008Z,25.49
2023-05-05T14:31:36.294Z,25.98
2023-05-05T14:34:03.841Z,26.11
2023-05-05T14:36:31.356Z,26.45
2023-05-05T14:38:58.619Z,26.52
2023-05-05T14:41:26.283Z,26.78
2023-05-05T14:43:53.481Z,26.71
2023-05-05T14:46:20.734Z,26.02
2023-05-05T14:48:48.428Z,26.44
2023-05-05T14:51:15.989Z,26.52
2023-05-05T14:53:43.231Z,26.27
2023-05-05T14:56:10.691Z,26.11
2023-05-05T14:58:38.148Z,25.62
2023-05-05T15:01:05.473Z,25.89
2023-05-05T15:03:33.014Z,26.66
2023-05-05T15:06:00.310Z,27.09
2023-05-05T15:08:27.483Z,26.55
2023-05-05T15:10:54.948Z,26.83
2023-05-05T15:13:22.248Z,27.41
2023-05-05T15:15:50.310Z,27.26
2023-05-05T15:18:17.836Z,25.95
2023-05-05T15:20:45.019Z,26.04
2023-05-05T15:23:12.710Z,25.38
2023-05-05T15:25:42.797Z,25.78
2023-05-05T15:28:09.965Z,25.78
2023-05-05T15:30:37.275Z,26.23
2023-05-05T15:33:04.856Z,26.36
2023-05-05T15:35:32.159Z,26.21
2023-05-05T15:37:59.414Z,25.97
2023-05-05T15:40:26.981Z,26.48
2023-05-05T15:42:54.170Z,26.78
2023-05-05T15:45:21.401Z,27.08
2023-05-05T15:47:50.471Z,26.62
2023-05-05T15:50:17.841Z,26.44
2023-05-05T15:52:45.026Z,26.71
2023-05-05T15:55:12.640Z,26.98
2023-05-05T15:57:40.435Z,25.93
2023-05-05T16:00:08.103Z,26.04
2023-05-05T16:02:35.395Z,24.91
2023-05-05T16:05:03.042Z,24.68
2023-05-05T16:07:30.516Z,25.19
2023-05-05T16:09:57.968Z,25.40
2023-05-05T16:12:25.894Z,25.42
2023-05-05T16:14:55.830Z,25.81
2023-05-05T16:17:23.137Z,26.22
2023-05-05T16:19:50.680Z,26.42
2023-05-05T16:25:09.559Z,26.43
2023-05-05T16:27:43.337Z,26.67
2023-05-05T16:30:21.694Z,26.90
2023-05-05T16:32:51.306Z,26.64
2023-05-05T16:35:21.178Z,26.17
2023-05-05T16:37:48.927Z,25.89
2023-05-05T16:40:16.754Z,26.05
2023-05-05T16:42:45.301Z,26.07
2023-05-05T16:45:12.914Z,26.19
2023-05-05T16:47:43.160Z,25.89
2023-05-05T16:50:21.722Z,24.62
2023-05-05T16:52:49.914Z,23.77
2023-05-05T16:55:24.427Z,24.55
2023-05-05T17:01:04.160Z,25.27
2023-05-05T17:03:31.325Z,25.39
2023-05-05T17:05:58.884Z,25.25
2023-05-05T17:08:26.175Z,25.37
2023-05-05T17:10:53.348Z,25.37
2023-05-05T17:13:21.017Z,24.21
2023-05-05T17:15:48.356Z,24.73
2023-05-05T17:18:15.802Z,25.02
2023-05-05T17:20:43.277Z,24.83
2023-05-05T17:23:10.713Z,24.98
2023-05-05T17:25:38.306Z,24.85
2023-05-05T17:28:07.452Z,24.45
2023-05-05T17:30:34.652Z,24.33
2023-05-05T17:33:01.892Z,24.42
2023-05-05T17:35:29.750Z,24.31
2023-05-05T17:37:56.968Z,24.02
2023-05-05T17:40:24.223Z,23.61
2023-05-05T17:42:51.735Z,23.66
2023-05-05T17:45:19.011Z,23.94
2023-05-05T17:47:46.348Z,23.93
2023-05-05T17:50:13.825Z,23.49
2023-05-05T17:52:41.203Z,23.11
2023-05-05T17:55:08.829Z,22.97
2023-05-05T17:57:36.538Z,22.70
2023-05-05T18:00:06.863Z,23.07
2023-05-05T18:02:40.559Z,22.95
2023-05-05T18:05:09.132Z,22.70
2023-05-05T18:07:36.432Z,22.31
2023-05-05T18:10:03.715Z,22.72
2023-05-05T18:12:31.389Z,22.41
2023-05-05T18:14:58.566Z,22.34
2023-05-05T18:17:26.271Z,22.03
2023-05-05T18:19:53.714Z,21.64
2023-05-05T18:22:21.818Z,21.45
2023-05-05T18:24:49.097Z,21.34
2023-05-05T18:27:16.602Z,21.52
2023-05-05T18:29:43.761Z,21.40
2023-05-05T18:32:11.339Z,21.43
2023-05-05T18:34:38.782Z,21.26
2023-05-05T18:37:06.099Z,21.28
2023-05-05T18:39:33.258Z,21.38
2023-05-05T18:42:00.893Z,21.28
2023-05-05T18:44:28.199Z,21.16
2023-05-05T18:46:55.446Z,21.72
2023-05-05T18:49:23.334Z,21.51
2023-05-05T18:51:50.538Z,21.25
2023-05-05T18:54:17.773Z,20.81
2023-05-05T18:56:45.301Z,20.85
2023-05-05T18:59:12.477Z,21.17
2023-05-05T19:01:39.726Z,20.43
2023-05-05T19:04:15.530Z,20.33
2023-05-05T19:06:52.449Z,20.50
2023-05-05T19:09:20.171Z,20.45
2023-05-05T19:11:47.365Z,19.58
2023-05-05T19:14:14.533Z,19.78
2023-05-05T19:16:42.157Z,19.05
2023-05-05T19:19:10.870Z,19.48
2023-05-05T19:21:38.348Z,18.99
2023-05-05T19:24:07.268Z,19.74
2023-05-05T19:26:34.456Z,19.43
2023-05-05T19:29:01.742Z,18.65
2023-05-05T19:31:30.913Z,18.30
2023-05-05T19:33:59.849Z,17.81
2023-05-05T19:36:27.778Z,17.68
2023-05-05T19:38:55.511Z,17.35
2023-05-05T19:41:22.686Z,17.14
2023-05-05T19:43:50.367Z,16.85
2023-05-05T19:46:18.659Z,16.79
2023-05-05T19:48:46.246Z,16.61
2023-05-05T19:51:13.431Z,16.98
2023-05-05T19:53:42.841Z,16.95
2023-05-05T19:56:10.324Z,16.71
2023-05-05T19:58:53.644Z,16.50
2023-05-05T20:01:21.366Z,16.23
2023-05-05T20:03:49.044Z,16.19
2023-05-05T20:06:16.461Z,16.05
2023-05-05T20:08:43.660Z,16.01
2023-05-05T20:11:11.128Z,16.05
2023-05-05T20:13:39.062Z,16.04
2023-05-05T20:16:06.379Z,15.87
2023-05-05T20:18:33.933Z,15.61
2023-05-05T20:21:01.635Z,15.49
2023-05-05T20:23:28.832Z,15.43
2023-05-05T20:25:56.734Z,15.39
2023-05-05T20:28:23.926Z,15.10
2023-05-05T20:30:51.411Z,15.04
2023-05-05T20:33:18.872Z,15.18
2023-05-05T20:35:47.325Z,14.95
2023-05-05T20:38:14.576Z,14.95
2023-05-05T20:40:42.102Z,14.91
2023-05-05T20:43:09.250Z,14.73
2023-05-05T20:45:37.170Z,14.69
2023-05-05T20:48:05.493Z,14.87
2023-05-05T20:50:32.824Z,14.63
2023-05-05T20:53:00.055Z,14.50
2023-05-05T20:55:27.554Z,14.63
2023-05-05T20:57:55.001Z,14.61
2023-05-05T21:00:22.284Z,14.60
2023-05-05T21:02:49.893Z,14.54
2023-05-05T21:05:17.244Z,14.58
2023-05-05T21:07:44.861Z,14.62
2023-05-05T21:10:12.552Z,14.56
2023-05-05T21:12:40.311Z,14.26
2023-05-05T21:15:08.368Z,14.43
2023-05-05T21:17:36.011Z,14.19
2023-05-05T21:20:03.378Z,14.26
2023-05-05T21:22:30.771Z,14.20
2023-05-05T21:25:10.091Z,14.06
2023-05-05T21:27:37.298Z,14.10
2023-05-05T21:30:05.174Z,13.88
2023-05-05T21:32:32.375Z,13.76
2023-05-05T21:34:59.627Z,13.61
2023-05-05T21:37:27.067Z,13.46
2023-05-05T21:39:54.293Z,13.40
2023-05-05T21:42:21.477Z,13.60
2023-05-05T21:44:48.909Z,13.44
2023-05-05T21:47:16.355Z,13.40
2023-05-05T21:49:43.518Z,13.38
2023-05-05T21:52:11.058Z,13.51
2023-05-05T21:54:38.272Z,13.46
2023-05-05T21:57:05.489Z,13.52
2023-05-05T21:59:33.026Z,13.49
2023-05-05T22:02:00.755Z,13.71
2023-05-05T22:04:28.149Z,13.68
2023-05-05T22:06:55.376Z,14.43
2023-05-05T22:09:22.605Z,14.04
2023-05-05T22:11:50.429Z,13.73
2023-05-05T22:14:17.601Z,13.68
2023-05-05T22:16:44.876Z,13.71
2023-05-05T22:19:12.423Z,13.72
2023-05-05T22:21:39.675Z,13.53
2023-05-05T22:24:07.309Z,13.42
2023-05-05T22:26:35.268Z,13.36
2023-05-05T22:29:02.516Z,13.20
2023-05-05T22:31:30.824Z,13.15
2023-05-05T22:33:58.809Z,13.32
2023-05-05T22:36:26.043Z,13.50
2023-05-05T22:38:53.201Z,13.53
2023-05-05T22:41:21.169Z,13.66
2023-05-05T22:43:49.259Z,13.55
2023-05-05T22:46:16.417Z,13.49
2023-05-05T22:48:43.928Z,13.49
2023-05-05T22:51:11.578Z,13.39
2023-05-05T22:53:38.826Z,13.57
2023-05-05T22:56:06.447Z,13.29
2023-05-05T22:58:33.630Z,13.20
2023-05-05T23:01:00.776Z,13.08
2023-05-05T23:03:28.289Z,12.69
2023-05-05T23:05:55.514Z,12.64
2023-05-05T23:08:24.073Z,12.69
2023-05-05T23:10:51.584Z,12.63
2023-05-05T23:13:18.772Z,12.65
2023-05-05T23:15:46.112Z,12.44
2023-05-05T23:18:13.512Z,12.55
2023-05-05T23:20:40.771Z,12.75
2023-05-05T23:23:08.010Z,12.61
2023-05-05T23:25:35.679Z,12.44
2023-05-05T23:28:02.950Z,12.22
2023-05-05T23:30:32.483Z,12.05
2023-05-05T23:33:01.244Z,12.15
2023-05-05T23:35:28.630Z,12.04
2023-05-05T23:37:55.833Z,12.11
2023-05-05T23:40:23.277Z,11.92
2023-05-05T23:42:50.676Z,11.92
2023-05-05T23:45:19.345Z,11.89
2023-05-05T23:47:47.293Z,11.84
2023-05-05T23:50:14.478Z,11.71
2023-05-05T23:52:41.861Z,11.74
2023-05-05T23:55:10.253Z,11.60
2023-05-05T23:57:37.657Z,11.71
